Time;durP1;ratioP1;P1;durP2;ratioP2;P2;SDS_P1;SDS_P2;PMS_P1;PMS_P2;Temp;Humidity;BMP_temperature;BMP_pressure;BME280_temperature;BME280_humidity;BME280_pressure;Samples;Min_cycle;Max_cycle;Signal;HPM_P1;HPM_P2
2024/01/13 00:00:58;;;;;;;7.45;4.45;;;;;;;;;;4953235;28;20516;-66
2024/01/13 00:03:24;;;;;;;6.65;3.83;;;;;;;;;;4945441;28;20050;-66
2024/01/13 00:05:50;;;;;;;6.72;4.32;;;;;;;;;;4972080;28;20509;-66
2024/01/13 00:08:16;;;;;;;6.13;3.50;;;;;;;;;;4975393;28;20051;-66
2024/01/13 00:10:42;;;;;;;7.72;3.95;;;;;;;;;;4970022;28;20054;-66
2024/01/13 00:13:08;;;;;;;7.35;3.83;;;;;;;;;;4988988;28;20038;-66
2024/01/13 00:15:35;;;;;;;7.75;4.75;;;;;;;;;;4980877;28;20038;-66
2024/01/13 00:18:01;;;;;;;14.77;6.38;;;;;;;;;;4970537;28;20043;-66
2024/01/13 00:20:27;;;;;;;11.40;6.80;;;;;;;;;;4986242;28;20050;-66
2024/01/13 00:22:53;;;;;;;5.18;4.15;;;;;;;;;;4980550;28;20101;-66
2024/01/13 00:25:18;;;;;;;8.38;5.25;;;;;;;;;;4969960;28;20058;-66
2024/01/13 00:27:45;;;;;;;9.98;5.15;;;;;;;;;;4970490;28;20043;-66
2024/01/13 00:30:11;;;;;;;7.88;4.68;;;;;;;;;;4970355;28;20058;-66
2024/01/13 00:32:37;;;;;;;6.18;3.00;;;;;;;;;;4970339;28;20054;-66
2024/01/13 00:35:03;;;;;;;4.40;2.53;;;;;;;;;;4969691;28;20035;-66
2024/01/13 00:37:29;;;;;;;6.38;2.53;;;;;;;;;;4970245;28;20125;-66
2024/01/13 00:39:55;;;;;;;6.22;2.70;;;;;;;;;;4970320;28;20456;-66
2024/01/13 00:42:21;;;;;;;3.47;2.38;;;;;;;;;;4970732;28;20045;-66
2024/01/13 00:44:47;;;;;;;4.60;2.58;;;;;;;;;;4969955;28;20057;-66
2024/01/13 00:47:13;;;;;;;3.17;2.42;;;;;;;;;;4966938;28;20051;-66
2024/01/13 00:49:39;;;;;;;3.05;2.00;;;;;;;;;;4970193;28;20465;-66
2024/01/13 00:52:05;;;;;;;5.13;2.42;;;;;;;;;;4970156;28;20078;-66
2024/01/13 00:54:31;;;;;;;4.00;2.45;;;;;;;;;;4970103;28;21032;-66
2024/01/13 00:56:57;;;;;;;4.07;2.70;;;;;;;;;;4989213;28;20473;-66
2024/01/13 00:59:23;;;;;;;4.05;2.30;;;;;;;;;;4966000;28;20070;-66
2024/01/13 01:01:49;;;;;;;3.58;2.28;;;;;;;;;;4970018;28;20620;-66
2024/01/13 01:04:15;;;;;;;6.25;2.35;;;;;;;;;;4952686;28;20042;-66
2024/01/13 01:06:41;;;;;;;5.93;2.40;;;;;;;;;;4969348;28;20707;-66
2024/01/13 01:09:07;;;;;;;5.07;2.40;;;;;;;;;;4970035;28;20039;-66
2024/01/13 01:11:33;;;;;;;4.45;2.17;;;;;;;;;;4958030;28;20044;-66
2024/01/13 01:14:01;;;;;;;2.90;1.95;;;;;;;;;;4989641;28;20038;-66
2024/01/13 01:16:27;;;;;;;2.55;1.83;;;;;;;;;;4974627;28;20493;-66
2024/01/13 01:18:53;;;;;;;2.30;1.73;;;;;;;;;;4970206;28;20038;-66
2024/01/13 01:21:19;;;;;;;2.42;1.52;;;;;;;;;;4969943;28;20039;-66
2024/01/13 01:23:45;;;;;;;4.00;1.73;;;;;;;;;;4969521;28;20070;-66
2024/01/13 01:26:11;;;;;;;5.53;1.70;;;;;;;;;;4971896;28;20069;-66
2024/01/13 01:28:37;;;;;;;3.55;1.88;;;;;;;;;;4973882;28;20035;-66
2024/01/13 01:31:04;;;;;;;3.35;1.90;;;;;;;;;;4969386;28;20062;-66
2024/01/13 01:33:30;;;;;;;1.85;1.60;;;;;;;;;;4953820;28;20061;-66
2024/01/13 01:35:56;;;;;;;2.92;1.85;;;;;;;;;;4972755;28;20034;-66
2024/01/13 01:38:22;;;;;;;2.70;1.80;;;;;;;;;;4973444;28;20622;-66
2024/01/13 01:40:55;;;;;;;3.15;1.95;;;;;;;;;;4970791;28;20062;-66
2024/01/13 01:43:22;;;;;;;3.80;2.30;;;;;;;;;;4970518;28;20046;-66
2024/01/13 01:45:48;;;;;;;4.07;2.53;;;;;;;;;;4973117;28;20051;-66
2024/01/13 01:48:14;;;;;;;4.53;2.47;;;;;;;;;;4972798;28;20070;-66
2024/01/13 01:50:40;;;;;;;5.45;2.90;;;;;;;;;;4972984;28;20132;-66
2024/01/13 01:53:07;;;;;;;4.55;2.88;;;;;;;;;;4956205;28;20656;-66
2024/01/13 01:55:33;;;;;;;8.10;3.55;;;;;;;;;;4972633;28;20076;-66
2024/01/13 01:58:00;;;;;;;5.97;3.38;;;;;;;;;;4972898;28;20042;-66
2024/01/13 02:00:27;;;;;;;5.57;3.88;;;;;;;;;;4955542;28;20126;-66
2024/01/13 02:02:54;;;;;;;6.03;3.40;;;;;;;;;;4952376;28;20138;-66
2024/01/13 02:05:21;;;;;;;7.22;3.80;;;;;;;;;;4953184;28;20053;-66
2024/01/13 02:07:50;;;;;;;7.57;3.75;;;;;;;;;;4959496;28;20038;-66
2024/01/13 02:10:16;;;;;;;9.13;3.58;;;;;;;;;;4972810;28;20050;-66
2024/01/13 02:12:42;;;;;;;7.03;4.50;;;;;;;;;;4955815;28;20053;-66
2024/01/13 02:15:09;;;;;;;7.50;4.43;;;;;;;;;;4955186;28;20035;-66
2024/01/13 02:17:35;;;;;;;8.10;4.90;;;;;;;;;;4957275;28;20047;-66
2024/01/13 02:20:05;;;;;;;7.53;4.75;;;;;;;;;;4962132;28;20034;-66
2024/01/13 02:22:31;;;;;;;7.63;4.70;;;;;;;;;;4964898;28;20044;-66
2024/01/13 02:24:57;;;;;;;6.78;4.93;;;;;;;;;;4950245;29;20039;-66
2024/01/13 02:27:23;;;;;;;10.13;5.43;;;;;;;;;;4954133;28;20042;-66
2024/01/13 02:29:49;;;;;;;7.15;4.70;;;;;;;;;;4953118;29;20140;-66
2024/01/13 02:32:15;;;;;;;6.43;4.45;;;;;;;;;;4952829;29;20462;-66
2024/01/13 02:34:41;;;;;;;8.23;4.53;;;;;;;;;;4952203;29;20714;-66
2024/01/13 02:37:07;;;;;;;10.60;4.25;;;;;;;;;;4952485;29;20043;-66
2024/01/13 02:39:33;;;;;;;8.82;5.10;;;;;;;;;;4952959;29;20467;-66
2024/01/13 02:41:59;;;;;;;8.75;4.93;;;;;;;;;;4952960;29;20043;-66
2024/01/13 02:44:25;;;;;;;7.50;4.90;;;;;;;;;;4952789;28;20138;-66
2024/01/13 02:46:51;;;;;;;9.05;5.50;;;;;;;;;;4950583;29;20395;-66
2024/01/13 02:49:17;;;;;;;8.23;4.93;;;;;;;;;;4952747;28;20039;-66
2024/01/13 02:51:43;;;;;;;8.85;5.15;;;;;;;;;;4957923;28;20126;-66
2024/01/13 02:54:09;;;;;;;6.38;4.93;;;;;;;;;;4972115;28;20043;-66
2024/01/13 02:56:35;;;;;;;6.13;4.60;;;;;;;;;;4959068;28;20039;-66
2024/01/13 02:59:01;;;;;;;8.75;5.93;;;;;;;;;;4952570;29;20046;-66
2024/01/13 03:01:28;;;;;;;7.68;5.22;;;;;;;;;;4955738;28;20058;-66
2024/01/13 03:03:54;;;;;;;10.90;6.00;;;;;;;;;;4970519;28;20042;-66
2024/01/13 03:06:21;;;;;;;9.38;5.63;;;;;;;;;;4971548;28;20046;-66
2024/01/13 03:08:47;;;;;;;7.55;5.22;;;;;;;;;;4970569;28;20537;-66
2024/01/13 03:11:13;;;;;;;8.35;5.35;;;;;;;;;;4970622;28;20413;-66
2024/01/13 03:13:39;;;;;;;8.70;5.75;;;;;;;;;;4951392;29;20125;-66
2024/01/13 03:16:08;;;;;;;9.20;5.65;;;;;;;;;;4954508;28;20466;-66
2024/01/13 03:18:34;;;;;;;7.78;5.43;;;;;;;;;;4971735;28;20038;-66
2024/01/13 03:21:02;;;;;;;7.28;4.88;;;;;;;;;;4955387;28;20070;-66
2024/01/13 03:23:28;;;;;;;7.93;4.95;;;;;;;;;;4954418;28;20105;-66
2024/01/13 03:25:55;;;;;;;9.57;5.28;;;;;;;;;;4971215;28;20034;-66
2024/01/13 03:28:21;;;;;;;8.60;5.05;;;;;;;;;;4970564;28;20517;-66
2024/01/13 03:30:47;;;;;;;8.75;4.88;;;;;;;;;;4971079;28;20413;-66
2024/01/13 03:33:13;;;;;;;8.00;5.10;;;;;;;;;;4971333;28;20046;-66
2024/01/13 03:35:39;;;;;;;7.32;4.70;;;;;;;;;;4970034;28;20042;-66
2024/01/13 03:38:05;;;;;;;9.23;4.68;;;;;;;;;;4969532;28;20047;-66
2024/01/13 03:40:31;;;;;;;7.43;4.57;;;;;;;;;;4970936;28;20093;-66
2024/01/13 03:42:57;;;;;;;7.78;4.57;;;;;;;;;;4971142;28;20047;-66
2024/01/13 03:45:23;;;;;;;5.93;4.45;;;;;;;;;;4971178;28;20046;-66
2024/01/13 03:47:49;;;;;;;7.47;4.15;;;;;;;;;;4965896;28;20126;-66
2024/01/13 03:50:15;;;;;;;7.55;4.03;;;;;;;;;;4951844;29;20043;-66
2024/01/13 03:52:41;;;;;;;7.65;4.40;;;;;;;;;;4962852;28;20129;-66
2024/01/13 03:55:07;;;;;;;7.18;4.13;;;;;;;;;;4970988;28;20141;-66
2024/01/13 03:57:33;;;;;;;9.40;4.47;;;;;;;;;;4969290;28;20035;-66
2024/01/13 03:59:59;;;;;;;7.72;4.20;;;;;;;;;;4965088;28;20038;-66
2024/01/13 04:02:27;;;;;;;9.77;4.30;;;;;;;;;;4963134;28;20059;-66
2024/01/13 04:04:53;;;;;;;6.75;3.83;;;;;;;;;;4966171;28;20045;-66
2024/01/13 04:07:19;;;;;;;4.63;3.58;;;;;;;;;;4988991;28;20551;-66
2024/01/13 04:09:45;;;;;;;7.90;3.42;;;;;;;;;;4953354;28;20051;-66
2024/01/13 04:12:12;;;;;;;6.15;3.72;;;;;;;;;;4977522;28;20043;-66
2024/01/13 04:14:38;;;;;;;6.53;3.95;;;;;;;;;;4972766;28;20558;-66
2024/01/13 04:17:04;;;;;;;5.93;4.07;;;;;;;;;;4987070;28;20039;-66
2024/01/13 04:19:30;;;;;;;8.80;4.15;;;;;;;;;;4970798;28;20050;-66
2024/01/13 04:21:56;;;;;;;7.65;3.97;;;;;;;;;;4970520;28;20050;-66
2024/01/13 04:24:22;;;;;;;13.70;4.38;;;;;;;;;;4960796;28;20046;-66
2024/01/13 04:26:48;;;;;;;10.15;4.32;;;;;;;;;;4959813;28;20069;-66
2024/01/13 04:29:15;;;;;;;10.07;4.60;;;;;;;;;;4969863;28;20050;-66
2024/01/13 04:31:41;;;;;;;6.00;4.13;;;;;;;;;;4970448;28;20043;-66
2024/01/13 04:34:07;;;;;;;6.47;4.53;;;;;;;;;;4970657;28;20039;-66
2024/01/13 04:36:33;;;;;;;7.65;4.35;;;;;;;;;;4979145;28;20066;-66
2024/01/13 04:38:59;;;;;;;6.95;4.30;;;;;;;;;;4971796;28;20042;-66
2024/01/13 04:41:25;;;;;;;8.10;4.38;;;;;;;;;;4972987;28;20125;-66
2024/01/13 04:43:51;;;;;;;6.88;4.22;;;;;;;;;;4970473;28;20197;-66
2024/01/13 04:46:17;;;;;;;8.85;4.72;;;;;;;;;;4970578;28;20035;-66
2024/01/13 04:48:43;;;;;;;7.95;4.53;;;;;;;;;;4969341;28;20610;-66
2024/01/13 04:51:09;;;;;;;6.20;4.15;;;;;;;;;;4970371;28;20039;-66
2024/01/13 04:53:35;;;;;;;10.65;4.43;;;;;;;;;;4969974;28;20058;-66
2024/01/13 04:56:01;;;;;;;6.50;3.90;;;;;;;;;;4953903;28;20109;-66
2024/01/13 04:58:27;;;;;;;10.82;4.97;;;;;;;;;;4969767;28;20039;-66
2024/01/13 05:00:53;;;;;;;10.40;4.97;;;;;;;;;;4969966;28;20086;-66
2024/01/13 05:03:19;;;;;;;11.65;5.00;;;;;;;;;;4969876;28;20568;-66
2024/01/13 05:05:45;;;;;;;7.40;4.47;;;;;;;;;;4972054;28;20058;-66
2024/01/13 05:08:11;;;;;;;8.30;4.53;;;;;;;;;;4966876;28;20058;-66
2024/01/13 05:10:37;;;;;;;10.18;4.30;;;;;;;;;;4973867;28;20449;-66
2024/01/13 05:13:03;;;;;;;10.57;4.20;;;;;;;;;;4979013;28;20109;-66
2024/01/13 05:15:29;;;;;;;8.48;4.93;;;;;;;;;;4974265;28;20569;-66
2024/01/13 05:17:55;;;;;;;8.95;4.15;;;;;;;;;;4974811;28;20126;-66
2024/01/13 05:20:21;;;;;;;8.45;4.32;;;;;;;;;;4974572;28;20532;-66
2024/01/13 05:22:47;;;;;;;9.32;4.35;;;;;;;;;;4956349;28;20046;-66
2024/01/13 05:25:13;;;;;;;7.05;4.50;;;;;;;;;;4969112;28;20077;-66
2024/01/13 05:27:39;;;;;;;8.57;4.20;;;;;;;;;;4973692;28;20039;-66
2024/01/13 05:30:05;;;;;;;6.45;3.40;;;;;;;;;;4972725;28;20481;-66
2024/01/13 05:32:31;;;;;;;9.32;3.78;;;;;;;;;;4973388;28;20559;-66
2024/01/13 05:34:57;;;;;;;5.35;3.13;;;;;;;;;;4973625;28;20043;-66
2024/01/13 05:37:23;;;;;;;7.00;2.90;;;;;;;;;;4973400;28;20046;-66
2024/01/13 05:39:49;;;;;;;4.72;2.58;;;;;;;;;;4972487;28;20038;-66
2024/01/13 05:42:15;;;;;;;5.35;2.55;;;;;;;;;;4972296;28;20425;-66
2024/01/13 05:44:41;;;;;;;6.97;2.45;;;;;;;;;;4981557;28;20042;-66
2024/01/13 05:47:09;;;;;;;4.40;2.25;;;;;;;;;;4993153;28;20061;-66
2024/01/13 05:49:35;;;;;;;4.72;2.17;;;;;;;;;;4972839;28;20058;-66
2024/01/13 05:52:01;;;;;;;6.38;2.42;;;;;;;;;;4989636;28;20386;-66
2024/01/13 05:54:27;;;;;;;3.92;2.40;;;;;;;;;;4973070;28;20177;-66
2024/01/13 05:56:53;;;;;;;5.47;2.60;;;;;;;;;;4982277;28;20177;-66
2024/01/13 05:59:19;;;;;;;3.13;2.20;;;;;;;;;;4960944;28;20528;-66
2024/01/13 06:01:45;;;;;;;5.95;2.80;;;;;;;;;;4986989;28;20062;-66
2024/01/13 06:04:11;;;;;;;3.67;2.30;;;;;;;;;;4988705;28;20087;-66
2024/01/13 06:06:37;;;;;;;5.40;2.50;;;;;;;;;;4955934;28;20548;-66
2024/01/13 06:09:03;;;;;;;3.03;2.10;;;;;;;;;;4982695;28;20137;-66
2024/01/13 06:11:29;;;;;;;4.20;1.80;;;;;;;;;;4986814;28;20394;-66
2024/01/13 06:13:56;;;;;;;6.07;2.13;;;;;;;;;;4972803;28;20050;-66
2024/01/13 06:16:22;;;;;;;6.20;2.03;;;;;;;;;;4986862;28;20086;-66
2024/01/13 06:18:48;;;;;;;4.38;2.05;;;;;;;;;;4972925;28;20138;-66
2024/01/13 06:21:14;;;;;;;4.40;1.83;;;;;;;;;;4982799;28;20714;-66
2024/01/13 06:23:40;;;;;;;4.10;2.10;;;;;;;;;;4977459;28;20039;-66
2024/01/13 06:26:06;;;;;;;3.50;2.13;;;;;;;;;;4979484;28;20512;-66
2024/01/13 06:28:32;;;;;;;5.80;2.00;;;;;;;;;;4980682;28;20039;-66
2024/01/13 06:30:58;;;;;;;4.45;2.42;;;;;;;;;;4971684;28;20049;-66
2024/01/13 06:33:24;;;;;;;8.00;2.67;;;;;;;;;;4972375;28;20034;-66
2024/01/13 06:35:50;;;;;;;5.55;2.58;;;;;;;;;;4971197;28;20101;-66
2024/01/13 06:38:16;;;;;;;5.57;2.58;;;;;;;;;;4972877;28;20126;-66
2024/01/13 06:40:42;;;;;;;5.45;3.08;;;;;;;;;;4971639;28;20119;-66
2024/01/13 06:43:10;;;;;;;5.97;2.70;;;;;;;;;;4972466;28;20051;-66
2024/01/13 06:45:37;;;;;;;4.32;2.85;;;;;;;;;;4965544;28;20086;-66
2024/01/13 06:48:03;;;;;;;4.95;3.00;;;;;;;;;;4971966;28;20412;-66
2024/01/13 06:50:29;;;;;;;4.70;2.67;;;;;;;;;;4954277;28;20134;-66
2024/01/13 06:52:55;;;;;;;4.97;2.95;;;;;;;;;;4971768;28;20125;-66
2024/01/13 06:55:23;;;;;;;4.13;2.92;;;;;;;;;;4971910;28;20648;-66
2024/01/13 06:57:50;;;;;;;5.80;3.13;;;;;;;;;;4954739;28;20041;-66
2024/01/13 07:00:16;;;;;;;6.10;3.22;;;;;;;;;;4971082;28;20055;-66
2024/01/13 07:02:43;;;;;;;6.22;3.20;;;;;;;;;;4954403;28;20137;-66
2024/01/13 07:05:10;;;;;;;5.47;3.60;;;;;;;;;;4971638;28;20051;-66
2024/01/13 07:07:36;;;;;;;6.60;3.60;;;;;;;;;;4972194;28;20051;-66
2024/01/13 07:10:04;;;;;;;5.13;3.47;;;;;;;;;;4971050;28;20035;-66
2024/01/13 07:12:30;;;;;;;8.73;3.47;;;;;;;;;;4963996;28;20494;-66
2024/01/13 07:14:56;;;;;;;6.00;3.63;;;;;;;;;;4970568;28;20047;-66
2024/01/13 07:17:22;;;;;;;5.53;3.63;;;;;;;;;;4973603;28;20035;-66
2024/01/13 07:19:48;;;;;;;6.43;3.47;;;;;;;;;;4971159;28;20070;-66
2024/01/13 07:22:14;;;;;;;5.10;3.30;;;;;;;;;;4971014;28;20038;-66
2024/01/13 07:24:40;;;;;;;6.75;3.10;;;;;;;;;;4976782;28;20038;-66
2024/01/13 07:27:07;;;;;;;5.32;3.50;;;;;;;;;;4975800;28;20049;-66
2024/01/13 07:29:33;;;;;;;5.15;3.13;;;;;;;;;;4961044;28;20097;-66
2024/01/13 07:31:59;;;;;;;4.97;3.25;;;;;;;;;;4970574;28;20039;-66
2024/01/13 07:34:25;;;;;;;5.13;3.63;;;;;;;;;;4970947;28;20043;-66
2024/01/13 07:36:51;;;;;;;6.13;3.00;;;;;;;;;;4970881;28;20707;-66
2024/01/13 07:39:17;;;;;;;6.10;2.70;;;;;;;;;;4969733;28;20173;-66
2024/01/13 07:41:44;;;;;;;3.65;2.58;;;;;;;;;;4970731;28;20562;-66
2024/01/13 07:44:10;;;;;;;3.05;2.22;;;;;;;;;;4971815;28;20433;-66
2024/01/13 07:46:41;;;;;;;2.67;2.25;;;;;;;;;;4990672;28;20082;-66
2024/01/13 07:49:07;;;;;;;3.35;2.13;;;;;;;;;;4985966;28;20050;-66
2024/01/13 07:51:33;;;;;;;3.75;2.15;;;;;;;;;;4989955;28;20042;-66
2024/01/13 07:53:59;;;;;;;2.78;2.00;;;;;;;;;;4974970;28;20035;-66
2024/01/13 07:56:25;;;;;;;3.75;2.40;;;;;;;;;;4970797;28;20676;-66
2024/01/13 07:58:51;;;;;;;2.20;1.73;;;;;;;;;;4953689;28;20070;-66
2024/01/13 08:01:18;;;;;;;2.95;1.92;;;;;;;;;;4952863;28;20382;-66
2024/01/13 08:03:44;;;;;;;2.22;1.63;;;;;;;;;;4937506;28;20046;-66
2024/01/13 08:06:10;;;;;;;3.33;2.30;;;;;;;;;;4970882;28;20441;-66
2024/01/13 08:08:36;;;;;;;2.85;2.13;;;;;;;;;;4970957;28;20531;-66
2024/01/13 08:11:02;;;;;;;3.33;2.30;;;;;;;;;;4969925;28;20042;-66
2024/01/13 08:13:28;;;;;;;3.97;2.67;;;;;;;;;;4970325;28;20329;-66
2024/01/13 08:15:54;;;;;;;4.32;2.70;;;;;;;;;;4970897;28;20594;-66
2024/01/13 08:18:20;;;;;;;3.80;2.78;;;;;;;;;;4972770;28;20038;-66
2024/01/13 08:20:46;;;;;;;4.38;2.85;;;;;;;;;;4969917;28;20054;-67
2024/01/13 08:23:12;;;;;;;4.15;2.88;;;;;;;;;;4970597;28;20046;-67
2024/01/13 08:25:38;;;;;;;7.95;3.45;;;;;;;;;;4963848;28;20635;-67
2024/01/13 08:28:04;;;;;;;8.25;4.25;;;;;;;;;;4982649;28;20472;-67
2024/01/13 08:30:30;;;;;;;8.52;5.05;;;;;;;;;;4988564;28;20049;-67
2024/01/13 08:32:56;;;;;;;12.85;5.82;;;;;;;;;;4983627;28;20047;-67
2024/01/13 08:35:22;;;;;;;13.32;6.85;;;;;;;;;;4970609;28;20786;-67
2024/01/13 08:37:51;;;;;;;17.88;8.15;;;;;;;;;;4982234;28;20041;-67
2024/01/13 08:40:17;;;;;;;18.13;8.30;;;;;;;;;;4971683;28;20143;-67
2024/01/13 08:42:43;;;;;;;22.33;9.68;;;;;;;;;;4952239;28;20054;-67
2024/01/13 08:45:09;;;;;;;16.63;9.32;;;;;;;;;;4974267;28;20039;-67
2024/01/13 08:47:35;;;;;;;19.40;9.43;;;;;;;;;;4974445;28;20074;-67
2024/01/13 08:50:02;;;;;;;22.77;10.05;;;;;;;;;;4974531;28;20070;-67
2024/01/13 08:52:28;;;;;;;21.23;10.52;;;;;;;;;;4973676;28;20219;-67
2024/01/13 08:54:54;;;;;;;23.98;11.88;;;;;;;;;;4989317;28;20046;-67
2024/01/13 08:57:20;;;;;;;28.00;12.10;;;;;;;;;;4982159;28;20441;-67
2024/01/13 08:59:46;;;;;;;29.50;14.15;;;;;;;;;;4993401;28;20046;-67
2024/01/13 09:02:12;;;;;;;36.53;17.27;;;;;;;;;;4978060;28;20051;-67
2024/01/13 09:04:38;;;;;;;32.40;15.82;;;;;;;;;;4975861;28;20542;-67
2024/01/13 09:07:04;;;;;;;43.33;18.65;;;;;;;;;;4993593;28;20038;-67
2024/01/13 09:09:30;;;;;;;38.00;18.30;;;;;;;;;;4982861;28;20385;-67
2024/01/13 09:11:57;;;;;;;42.40;18.33;;;;;;;;;;4973607;28;20218;-67
2024/01/13 09:14:23;;;;;;;41.22;19.17;;;;;;;;;;4986372;28;20069;-67
2024/01/13 09:16:49;;;;;;;46.80;19.95;;;;;;;;;;4984963;28;20070;-67
2024/01/13 09:19:15;;;;;;;42.83;19.25;;;;;;;;;;4972699;28;20742;-67
2024/01/13 09:21:41;;;;;;;48.67;21.85;;;;;;;;;;4972864;28;20038;-67
2024/01/13 09:24:07;;;;;;;47.10;22.17;;;;;;;;;;4957623;28;20050;-67
2024/01/13 09:26:33;;;;;;;48.40;21.83;;;;;;;;;;4979737;28;20104;-67
2024/01/13 09:28:59;;;;;;;63.63;25.00;;;;;;;;;;4973118;28;20745;-67
2024/01/13 09:31:25;;;;;;;55.10;25.02;;;;;;;;;;4973283;28;20049;-67
2024/01/13 09:33:51;;;;;;;57.95;25.30;;;;;;;;;;4973282;28;20054;-67
2024/01/13 09:36:17;;;;;;;56.75;24.85;;;;;;;;;;4972319;28;20042;-67
2024/01/13 09:38:44;;;;;;;55.97;25.80;;;;;;;;;;4973480;28;20069;-67
2024/01/13 09:41:10;;;;;;;67.50;28.25;;;;;;;;;;4961303;28;20057;-67
2024/01/13 09:43:47;;;;;;;61.65;25.80;;;;;;;;;;4992202;28;20046;-67
2024/01/13 09:46:13;;;;;;;63.42;28.60;;;;;;;;;;4979000;28;20806;-67
2024/01/13 09:48:39;;;;;;;62.78;30.05;;;;;;;;;;4974155;28;20126;-67
2024/01/13 09:51:06;;;;;;;66.65;27.63;;;;;;;;;;4992870;28;20137;-67
2024/01/13 09:53:32;;;;;;;63.08;28.80;;;;;;;;;;4983652;28;20043;-67
2024/01/13 09:56:00;;;;;;;63.05;28.75;;;;;;;;;;4972035;28;20469;-67
2024/01/13 09:58:27;;;;;;;73.80;31.85;;;;;;;;;;4987040;28;20278;-67
2024/01/13 10:00:53;;;;;;;68.03;30.77;;;;;;;;;;4986159;28;20049;-67
2024/01/13 10:03:20;;;;;;;73.35;31.75;;;;;;;;;;4950745;28;20070;-67
2024/01/13 10:05:46;;;;;;;67.43;31.10;;;;;;;;;;4976896;28;20054;-67
2024/01/13 10:08:12;;;;;;;73.68;33.25;;;;;;;;;;4987290;28;20050;-67
2024/01/13 10:10:39;;;;;;;68.63;33.33;;;;;;;;;;4972077;28;20383;-67
2024/01/13 10:13:08;;;;;;;68.75;32.72;;;;;;;;;;4970127;28;20046;-67
2024/01/13 10:15:34;;;;;;;68.93;32.78;;;;;;;;;;4950718;29;20031;-67
2024/01/13 10:18:01;;;;;;;72.82;34.13;;;;;;;;;;4976295;28;20039;-67
2024/01/13 10:20:27;;;;;;;71.47;34.42;;;;;;;;;;4970429;28;20129;-67
2024/01/13 10:22:54;;;;;;;72.45;33.70;;;;;;;;;;4987562;28;20048;-67
2024/01/13 10:25:22;;;;;;;72.50;34.47;;;;;;;;;;4983458;28;20043;-67
2024/01/13 10:27:48;;;;;;;71.60;34.85;;;;;;;;;;4955004;28;20047;-67
2024/01/13 10:30:14;;;;;;;71.57;35.35;;;;;;;;;;4970269;28;20043;-67
2024/01/13 10:32:42;;;;;;;69.07;33.28;;;;;;;;;;4969327;28;20043;-67
2024/01/13 10:35:08;;;;;;;66.28;33.92;;;;;;;;;;4952947;28;20289;-67
2024/01/13 10:37:35;;;;;;;70.70;33.22;;;;;;;;;;4969992;28;20042;-67
2024/01/13 10:40:02;;;;;;;69.40;34.53;;;;;;;;;;4952759;28;20070;-67
2024/01/13 10:42:31;;;;;;;70.88;33.40;;;;;;;;;;4968482;28;20043;-67
2024/01/13 10:45:00;;;;;;;68.47;32.65;;;;;;;;;;4968294;28;20034;-67
2024/01/13 10:47:34;;;;;;;68.90;35.35;;;;;;;;;;4969404;28;20437;-67
2024/01/13 10:50:00;;;;;;;69.20;34.13;;;;;;;;;;4960760;28;20050;-67
2024/01/13 10:52:43;;;;;;;64.07;33.05;;;;;;;;;;4969477;28;20054;-67
2024/01/13 10:55:10;;;;;;;68.00;33.97;;;;;;;;;;4969712;28;20121;-67
2024/01/13 10:57:37;;;;;;;60.00;32.60;;;;;;;;;;4976282;28;20038;-67
2024/01/13 11:00:06;;;;;;;65.60;33.20;;;;;;;;;;4989129;28;20042;-67
2024/01/13 11:02:33;;;;;;;63.33;32.47;;;;;;;;;;4974812;28;20497;-67
2024/01/13 11:05:00;;;;;;;60.53;31.73;;;;;;;;;;4969223;28;20042;-67
2024/01/13 11:07:26;;;;;;;62.35;29.92;;;;;;;;;;4968553;28;20126;-67
2024/01/13 11:09:54;;;;;;;59.78;31.25;;;;;;;;;;4987269;28;20050;-67
2024/01/13 11:12:24;;;;;;;58.58;31.48;;;;;;;;;;4976947;28;20456;-67
2024/01/13 11:15:08;;;;;;;62.92;32.40;;;;;;;;;;4937584;28;20043;-67
2024/01/13 11:17:34;;;;;;;60.75;30.92;;;;;;;;;;4973088;28;20042;-67
2024/01/13 11:20:02;;;;;;;62.53;30.77;;;;;;;;;;4969333;28;20070;-67
2024/01/13 11:22:34;;;;;;;63.10;31.48;;;;;;;;;;4969034;28;20046;-67
2024/01/13 11:25:00;;;;;;;64.10;31.35;;;;;;;;;;4968556;28;20046;-67
2024/01/13 11:27:29;;;;;;;63.20;31.35;;;;;;;;;;4968862;28;20104;-67
2024/01/13 11:29:57;;;;;;;62.30;32.28;;;;;;;;;;4968923;28;20074;-67
2024/01/13 11:32:24;;;;;;;62.35;30.38;;;;;;;;;;4951547;28;20051;-67
2024/01/13 11:34:51;;;;;;;58.08;29.08;;;;;;;;;;4968209;28;20185;-67
2024/01/13 11:37:17;;;;;;;63.67;31.02;;;;;;;;;;4967932;28;20067;-67
2024/01/13 11:39:46;;;;;;;56.35;30.27;;;;;;;;;;4969041;28;20046;-67
2024/01/13 11:42:12;;;;;;;56.55;29.48;;;;;;;;;;4968907;28;20127;-67
2024/01/13 11:44:43;;;;;;;55.00;28.90;;;;;;;;;;4968403;28;20043;-67
2024/01/13 11:47:10;;;;;;;59.37;29.37;;;;;;;;;;4987105;28;20038;-67
2024/01/13 11:49:40;;;;;;;60.95;29.55;;;;;;;;;;4970995;28;20236;-67
2024/01/13 11:52:10;;;;;;;59.05;29.27;;;;;;;;;;4967923;28;20477;-67
2024/01/13 11:54:37;;;;;;;60.00;27.98;;;;;;;;;;4967354;28;20501;-67
2024/01/13 11:57:08;;;;;;;55.40;27.20;;;;;;;;;;4968039;28;20123;-67
2024/01/13 11:59:34;;;;;;;52.35;25.75;;;;;;;;;;4983411;28;20046;-67
2024/01/13 12:02:00;;;;;;;57.42;25.33;;;;;;;;;;4968146;28;20050;-67
2024/01/13 12:04:28;;;;;;;50.92;26.30;;;;;;;;;;4968020;28;20059;-67
2024/01/13 12:06:54;;;;;;;46.40;23.85;;;;;;;;;;4967172;28;20079;-67
2024/01/13 12:09:24;;;;;;;47.38;23.30;;;;;;;;;;4968391;28;20047;-67
2024/01/13 12:11:52;;;;;;;47.83;23.30;;;;;;;;;;4968374;28;20062;-67
2024/01/13 12:14:18;;;;;;;49.85;23.70;;;;;;;;;;4950729;28;20043;-67
2024/01/13 12:16:44;;;;;;;43.58;23.75;;;;;;;;;;4968098;28;20134;-67
2024/01/13 12:19:10;;;;;;;46.20;22.25;;;;;;;;;;4967325;28;20038;-67
2024/01/13 12:21:37;;;;;;;48.08;22.48;;;;;;;;;;4985954;28;20523;-67
2024/01/13 12:24:03;;;;;;;43.75;21.65;;;;;;;;;;4969662;28;20550;-67
2024/01/13 12:26:29;;;;;;;44.80;21.23;;;;;;;;;;4986319;28;20042;-67
2024/01/13 12:28:56;;;;;;;42.83;21.80;;;;;;;;;;4955897;28;20065;-67
2024/01/13 12:31:23;;;;;;;44.85;19.88;;;;;;;;;;4966245;28;20043;-67
2024/01/13 12:33:49;;;;;;;39.28;20.20;;;;;;;;;;4967619;28;20046;-67
2024/01/13 12:36:15;;;;;;;39.22;20.27;;;;;;;;;;4967638;28;20035;-67
2024/01/13 12:38:42;;;;;;;41.08;19.83;;;;;;;;;;4986207;28;20366;-67
2024/01/13 12:41:08;;;;;;;40.78;20.48;;;;;;;;;;4987609;28;20042;-67
2024/01/13 12:43:34;;;;;;;48.67;21.67;;;;;;;;;;4967856;28;20457;-67
2024/01/13 12:46:00;;;;;;;43.85;20.77;;;;;;;;;;4967714;28;20047;-67
2024/01/13 12:48:26;;;;;;;43.97;21.80;;;;;;;;;;4967861;28;20050;-67
2024/01/13 12:50:52;;;;;;;46.55;22.88;;;;;;;;;;4968206;28;20081;-67
2024/01/13 12:53:27;;;;;;;42.88;22.90;;;;;;;;;;4950757;28;20461;-67
2024/01/13 12:55:54;;;;;;;47.97;23.80;;;;;;;;;;4967950;28;20046;-67
2024/01/13 12:58:20;;;;;;;46.33;22.33;;;;;;;;;;4976640;28;20485;-67
2024/01/13 13:00:46;;;;;;;51.95;23.77;;;;;;;;;;4987236;28;20038;-67
2024/01/13 13:03:12;;;;;;;45.25;23.38;;;;;;;;;;4970826;28;20074;-67
2024/01/13 13:05:38;;;;;;;50.28;23.27;;;;;;;;;;4949982;28;20054;-67
2024/01/13 13:08:04;;;;;;;47.10;24.67;;;;;;;;;;4968264;28;20043;-67
2024/01/13 13:10:30;;;;;;;49.35;23.63;;;;;;;;;;4968028;28;20452;-67
2024/01/13 13:12:59;;;;;;;52.65;23.73;;;;;;;;;;4977405;28;20039;-67
2024/01/13 13:15:25;;;;;;;45.92;22.48;;;;;;;;;;4984502;28;20128;-67
2024/01/13 13:17:51;;;;;;;48.75;24.60;;;;;;;;;;4974253;28;20047;-67
2024/01/13 13:20:17;;;;;;;46.38;22.55;;;;;;;;;;4987525;28;20046;-67
2024/01/13 13:22:43;;;;;;;38.15;21.73;;;;;;;;;;4975489;28;20421;-67
2024/01/13 13:25:09;;;;;;;50.50;23.08;;;;;;;;;;4967703;28;20041;-67
2024/01/13 13:27:35;;;;;;;46.17;21.75;;;;;;;;;;4967436;28;20429;-67
2024/01/13 13:30:04;;;;;;;42.15;20.35;;;;;;;;;;4969515;28;20047;-67
2024/01/13 13:32:30;;;;;;;42.13;20.02;;;;;;;;;;4970818;28;20413;-67
2024/01/13 13:34:57;;;;;;;40.80;20.23;;;;;;;;;;4970825;28;20026;-67
2024/01/13 13:37:23;;;;;;;39.60;20.45;;;;;;;;;;4971815;28;20125;-67
2024/01/13 13:39:49;;;;;;;37.97;19.70;;;;;;;;;;4973022;28;20125;-67
2024/01/13 13:42:15;;;;;;;37.20;18.92;;;;;;;;;;4983339;28;20047;-67
2024/01/13 13:44:41;;;;;;;34.20;17.52;;;;;;;;;;4970927;28;20101;-67
2024/01/13 13:47:07;;;;;;;43.67;19.75;;;;;;;;;;4978565;28;20101;-67
2024/01/13 13:49:34;;;;;;;34.72;16.85;;;;;;;;;;4970715;28;20042;-67
2024/01/13 13:52:00;;;;;;;32.08;16.90;;;;;;;;;;4971060;28;20053;-67
2024/01/13 13:54:26;;;;;;;31.10;16.67;;;;;;;;;;4979176;28;20076;-67
2024/01/13 13:56:52;;;;;;;30.58;17.23;;;;;;;;;;4990025;28;20413;-67
2024/01/13 13:59:18;;;;;;;31.15;16.08;;;;;;;;;;4957127;28;20046;-67
2024/01/13 14:01:44;;;;;;;28.88;15.32;;;;;;;;;;4970498;28;20399;-67
2024/01/13 14:04:10;;;;;;;26.13;14.48;;;;;;;;;;4969607;28;20086;-67
2024/01/13 14:06:37;;;;;;;27.67;15.40;;;;;;;;;;4969887;28;20046;-67
2024/01/13 14:09:05;;;;;;;30.70;15.48;;;;;;;;;;4985726;28;20141;-67
2024/01/13 14:11:36;;;;;;;29.88;15.32;;;;;;;;;;4981629;28;20053;-67
2024/01/13 14:14:03;;;;;;;32.67;14.93;;;;;;;;;;4973891;28;20046;-67
2024/01/13 14:16:29;;;;;;;30.73;15.32;;;;;;;;;;4983385;28;20046;-67
2024/01/13 14:18:55;;;;;;;31.95;15.27;;;;;;;;;;4977325;28;20237;-67
2024/01/13 14:21:22;;;;;;;29.58;15.75;;;;;;;;;;4970110;28;20180;-67
2024/01/13 14:23:48;;;;;;;32.15;15.10;;;;;;;;;;4972978;28;20513;-67
2024/01/13 14:26:14;;;;;;;28.85;15.10;;;;;;;;;;4981393;28;20365;-67